SAS4055 ENGM-ENZV
Flight info
| Callsign | SAS4055 |
|---|---|
| Flight time | 0h 42m |
| Altitude | 38000 |
| Route | ATLAP DCT IPMOD DCT ROPNO |
| Aircraft | E195/M-SDE3GILORVW/S |
Departure
| Time | 2026-05-06 07:44 |
|---|---|
| Airport | Oslo-Gardermoen International Airport (ENGM) |
Arrival
| Time | 2026-05-06 08:26 |
|---|---|
| Airport | Stavanger Airport, Sola (ENZV) |
| Time | Latitude | Longitude | Altitude | Speed | Heading |
|---|---|---|---|---|---|
| 2026-05-06 07:21 | 60.19561 | 11.09425 | 684 ft | 0 kts | 196° |
| 2026-05-06 07:36 | 60.19573 | 11.09432 | 678 ft | 4 kts | 196° |
| 2026-05-06 07:36 | 60.19599 | 11.09447 | 678 ft | 4 kts | 196° |
| 2026-05-06 07:36 | 60.19604 | 11.09450 | 677 ft | 3 kts | 196° |
| 2026-05-06 07:40 | 60.19602 | 11.09439 | 678 ft | 2 kts | 239° |
| 2026-05-06 07:40 | 60.19620 | 11.09415 | 682 ft | 8 kts | 339° |
| 2026-05-06 07:40 | 60.19686 | 11.09297 | 682 ft | 19 kts | 304° |
| 2026-05-06 07:40 | 60.19738 | 11.08999 | 681 ft | 23 kts | 286° |
| 2026-05-06 07:41 | 60.19771 | 11.08718 | 677 ft | 18 kts | 253° |
| 2026-05-06 07:41 | 60.19636 | 11.08593 | 677 ft | 27 kts | 195° |
| 2026-05-06 07:41 | 60.19419 | 11.08470 | 675 ft | 33 kts | 195° |
| 2026-05-06 07:41 | 60.19200 | 11.08341 | 672 ft | 35 kts | 198° |
| 2026-05-06 07:42 | 60.18941 | 11.08194 | 671 ft | 39 kts | 195° |
| 2026-05-06 07:42 | 60.18760 | 11.08089 | 670 ft | 16 kts | 197° |
| 2026-05-06 07:42 | 60.18634 | 11.08014 | 669 ft | 22 kts | 196° |
| 2026-05-06 07:42 | 60.18540 | 11.07872 | 666 ft | 18 kts | 279° |
| 2026-05-06 07:43 | 60.18578 | 11.07595 | 664 ft | 22 kts | 286° |
| 2026-05-06 07:43 | 60.18682 | 11.07479 | 665 ft | 26 kts | 16° |
| 2026-05-06 07:43 | 60.19162 | 11.07757 | 670 ft | 117 kts | 16° |
| 2026-05-06 07:43 | 60.20140 | 11.08315 | 1140 ft | 156 kts | 17° |
| 2026-05-06 07:44 | 60.21143 | 11.08953 | 1886 ft | 166 kts | 19° |
| 2026-05-06 07:44 | 60.22416 | 11.09703 | 1888 ft | 196 kts | 14° |
| 2026-05-06 07:44 | 60.23776 | 11.10400 | 2554 ft | 200 kts | 14° |
| 2026-05-06 07:44 | 60.25151 | 11.10988 | 3525 ft | 206 kts | 6° |
| 2026-05-06 07:45 | 60.26660 | 11.11108 | 4084 ft | 228 kts | 350° |
| 2026-05-06 07:45 | 60.28112 | 11.09673 | 4679 ft | 243 kts | 315° |
| 2026-05-06 07:45 | 60.28949 | 11.06678 | 5344 ft | 254 kts | 281° |
| 2026-05-06 07:45 | 60.28784 | 11.03181 | 6214 ft | 256 kts | 248° |
| 2026-05-06 07:46 | 60.27774 | 11.00227 | 7031 ft | 257 kts | 232° |
| 2026-05-06 07:46 | 60.26933 | 10.97047 | 7808 ft | 259 kts | 249° |
| 2026-05-06 07:46 | 60.26364 | 10.93587 | 8578 ft | 261 kts | 252° |
| 2026-05-06 07:46 | 60.25791 | 10.90101 | 9375 ft | 263 kts | 250° |
| 2026-05-06 07:47 | 60.25153 | 10.86627 | 10141 ft | 267 kts | 249° |
| 2026-05-06 07:47 | 60.24481 | 10.83011 | 10557 ft | 283 kts | 249° |
| 2026-05-06 07:47 | 60.23776 | 10.79260 | 11169 ft | 288 kts | 249° |
| 2026-05-06 07:47 | 60.23068 | 10.75484 | 11946 ft | 289 kts | 250° |
| 2026-05-06 07:48 | 60.22356 | 10.71699 | 12744 ft | 290 kts | 250° |
| 2026-05-06 07:48 | 60.21642 | 10.67897 | 13536 ft | 291 kts | 251° |
| 2026-05-06 07:48 | 60.20926 | 10.64098 | 14267 ft | 291 kts | 251° |
| 2026-05-06 07:48 | 60.20210 | 10.60307 | 14996 ft | 290 kts | 251° |
| 2026-05-06 07:49 | 60.19491 | 10.56519 | 15736 ft | 290 kts | 252° |
| 2026-05-06 07:49 | 60.18777 | 10.52741 | 16508 ft | 289 kts | 252° |
| 2026-05-06 07:49 | 60.18055 | 10.48974 | 17293 ft | 289 kts | 252° |
| 2026-05-06 07:49 | 60.17341 | 10.45207 | 18089 ft | 289 kts | 252° |
| 2026-05-06 07:50 | 60.16624 | 10.41436 | 18800 ft | 289 kts | 252° |
| 2026-05-06 07:50 | 60.15905 | 10.37658 | 19490 ft | 290 kts | 252° |
| 2026-05-06 07:50 | 60.15176 | 10.33865 | 20216 ft | 292 kts | 252° |
| 2026-05-06 07:50 | 60.14446 | 10.30057 | 20938 ft | 293 kts | 251° |
| 2026-05-06 07:51 | 60.13718 | 10.26280 | 21645 ft | 295 kts | 251° |
| 2026-05-06 07:51 | 60.12967 | 10.22377 | 22360 ft | 297 kts | 251° |
| 2026-05-06 07:51 | 60.12217 | 10.18499 | 23084 ft | 299 kts | 250° |
| 2026-05-06 07:51 | 60.11462 | 10.14593 | 23751 ft | 301 kts | 250° |
| 2026-05-06 07:52 | 60.10699 | 10.10664 | 24308 ft | 304 kts | 250° |
| 2026-05-06 07:52 | 60.09928 | 10.06695 | 24875 ft | 306 kts | 250° |
| 2026-05-06 07:52 | 60.09162 | 10.02758 | 25419 ft | 309 kts | 250° |
| 2026-05-06 07:52 | 60.08369 | 9.98686 | 25941 ft | 311 kts | 249° |
| 2026-05-06 07:53 | 60.07573 | 9.94610 | 26330 ft | 317 kts | 249° |
| 2026-05-06 07:53 | 60.06774 | 9.90542 | 26828 ft | 320 kts | 249° |
| 2026-05-06 07:53 | 60.05959 | 9.86382 | 27333 ft | 322 kts | 249° |
| 2026-05-06 07:53 | 60.05134 | 9.82190 | 27818 ft | 325 kts | 249° |
| 2026-05-06 07:54 | 60.04302 | 9.77971 | 28231 ft | 327 kts | 249° |
| 2026-05-06 07:54 | 60.03462 | 9.73709 | 28711 ft | 329 kts | 249° |
| 2026-05-06 07:54 | 60.02617 | 9.69435 | 29182 ft | 332 kts | 248° |
| 2026-05-06 07:54 | 60.01751 | 9.65072 | 29586 ft | 335 kts | 248° |
| 2026-05-06 07:55 | 60.00886 | 9.60717 | 29917 ft | 340 kts | 248° |
| 2026-05-06 07:55 | 60.00003 | 9.56292 | 30156 ft | 345 kts | 248° |
| 2026-05-06 07:55 | 59.99127 | 9.51894 | 30578 ft | 345 kts | 248° |
| 2026-05-06 07:55 | 59.98237 | 9.47450 | 30976 ft | 345 kts | 248° |
| 2026-05-06 07:56 | 59.97335 | 9.42947 | 31406 ft | 345 kts | 248° |
| 2026-05-06 07:56 | 59.96455 | 9.38567 | 31820 ft | 345 kts | 248° |
| 2026-05-06 07:56 | 59.95561 | 9.34130 | 32258 ft | 345 kts | 248° |
| 2026-05-06 07:56 | 59.94666 | 9.29696 | 32716 ft | 345 kts | 248° |
| 2026-05-06 07:57 | 59.93678 | 9.25332 | 33075 ft | 347 kts | 241° |
| 2026-05-06 07:57 | 59.92324 | 9.21334 | 33488 ft | 349 kts | 236° |
| 2026-05-06 07:57 | 59.90838 | 9.17402 | 33950 ft | 350 kts | 235° |
| 2026-05-06 07:57 | 59.89452 | 9.13500 | 34310 ft | 351 kts | 238° |
| 2026-05-06 07:58 | 59.88098 | 9.09428 | 34645 ft | 354 kts | 238° |
| 2026-05-06 07:58 | 59.86743 | 9.05318 | 34985 ft | 356 kts | 239° |
| 2026-05-06 07:58 | 59.85383 | 9.01180 | 35337 ft | 358 kts | 238° |
| 2026-05-06 07:58 | 59.84015 | 8.97025 | 35696 ft | 360 kts | 238° |
| 2026-05-06 07:59 | 59.82637 | 8.92845 | 36011 ft | 363 kts | 238° |
| 2026-05-06 07:59 | 59.81244 | 8.88635 | 36311 ft | 366 kts | 238° |
| 2026-05-06 07:59 | 59.79841 | 8.84399 | 36629 ft | 368 kts | 238° |
| 2026-05-06 07:59 | 59.78428 | 8.80145 | 36936 ft | 370 kts | 238° |
| 2026-05-06 08:00 | 59.77005 | 8.75863 | 37234 ft | 373 kts | 238° |
| 2026-05-06 08:00 | 59.75570 | 8.71559 | 37542 ft | 375 kts | 238° |
| 2026-05-06 08:00 | 59.74127 | 8.67234 | 37815 ft | 377 kts | 238° |
| 2026-05-06 08:00 | 59.72705 | 8.62988 | 37947 ft | 361 kts | 238° |
| 2026-05-06 08:01 | 59.69886 | 8.54573 | 38034 ft | 375 kts | 238° |
| 2026-05-06 08:01 | 59.66929 | 8.45792 | 38038 ft | 390 kts | 238° |
| 2026-05-06 08:02 | 59.65430 | 8.41348 | 37624 ft | 387 kts | 238° |
| 2026-05-06 08:02 | 59.63949 | 8.36972 | 37105 ft | 378 kts | 238° |
| 2026-05-06 08:02 | 59.62503 | 8.32702 | 36621 ft | 369 kts | 238° |
| 2026-05-06 08:02 | 59.61089 | 8.28536 | 36161 ft | 362 kts | 238° |
| 2026-05-06 08:03 | 59.59685 | 8.24407 | 35777 ft | 362 kts | 238° |
| 2026-05-06 08:03 | 59.58279 | 8.20277 | 35404 ft | 362 kts | 238° |
| 2026-05-06 08:03 | 59.56876 | 8.16167 | 35023 ft | 359 kts | 238° |
| 2026-05-06 08:03 | 59.55502 | 8.12148 | 34698 ft | 355 kts | 238° |
| 2026-05-06 08:04 | 59.54108 | 8.08073 | 34443 ft | 354 kts | 237° |
| 2026-05-06 08:04 | 59.52732 | 8.04064 | 34207 ft | 353 kts | 237° |
| 2026-05-06 08:04 | 59.51379 | 8.00122 | 33975 ft | 351 kts | 237° |
| 2026-05-06 08:04 | 59.50008 | 7.96143 | 33691 ft | 351 kts | 237° |
| 2026-05-06 08:05 | 59.48638 | 7.92168 | 33386 ft | 352 kts | 237° |
| 2026-05-06 08:05 | 59.47263 | 7.88184 | 33117 ft | 352 kts | 237° |
| 2026-05-06 08:05 | 59.45883 | 7.84196 | 32835 ft | 353 kts | 237° |
| 2026-05-06 08:05 | 59.44501 | 7.80210 | 32552 ft | 353 kts | 237° |
| 2026-05-06 08:06 | 59.43115 | 7.76224 | 32351 ft | 356 kts | 237° |
| 2026-05-06 08:06 | 59.41722 | 7.72202 | 32084 ft | 356 kts | 238° |
| 2026-05-06 08:06 | 59.40327 | 7.68199 | 31837 ft | 356 kts | 237° |
| 2026-05-06 08:06 | 59.38929 | 7.64190 | 31608 ft | 356 kts | 237° |
| 2026-05-06 08:07 | 59.37528 | 7.60179 | 31305 ft | 357 kts | 237° |
| 2026-05-06 08:07 | 59.36121 | 7.56161 | 31061 ft | 358 kts | 237° |
| 2026-05-06 08:07 | 59.34707 | 7.52130 | 30851 ft | 359 kts | 237° |
| 2026-05-06 08:07 | 59.33291 | 7.48100 | 30537 ft | 359 kts | 237° |
| 2026-05-06 08:08 | 59.31873 | 7.44067 | 30228 ft | 359 kts | 237° |
| 2026-05-06 08:08 | 59.30452 | 7.40038 | 29904 ft | 360 kts | 237° |
| 2026-05-06 08:08 | 59.29023 | 7.35996 | 29531 ft | 361 kts | 237° |
| 2026-05-06 08:08 | 59.27600 | 7.31969 | 29124 ft | 359 kts | 237° |
| 2026-05-06 08:09 | 59.26185 | 7.27972 | 28740 ft | 356 kts | 237° |
| 2026-05-06 08:09 | 59.24776 | 7.23997 | 28336 ft | 354 kts | 237° |
| 2026-05-06 08:09 | 59.23373 | 7.20055 | 27959 ft | 353 kts | 237° |
| 2026-05-06 08:09 | 59.21976 | 7.16130 | 27604 ft | 351 kts | 237° |
| 2026-05-06 08:10 | 59.20585 | 7.12230 | 27246 ft | 349 kts | 237° |
| 2026-05-06 08:10 | 59.19198 | 7.08355 | 26905 ft | 348 kts | 237° |
| 2026-05-06 08:10 | 59.17817 | 7.04488 | 26555 ft | 347 kts | 238° |
| 2026-05-06 08:10 | 59.16439 | 7.00642 | 26185 ft | 345 kts | 238° |
| 2026-05-06 08:11 | 59.15068 | 6.96822 | 25811 ft | 343 kts | 238° |
| 2026-05-06 08:11 | 59.13700 | 6.93020 | 25457 ft | 342 kts | 238° |
| 2026-05-06 08:11 | 59.12333 | 6.89217 | 25022 ft | 344 kts | 237° |
| 2026-05-06 08:11 | 59.10960 | 6.85411 | 24661 ft | 343 kts | 237° |
| 2026-05-06 08:12 | 59.09592 | 6.81632 | 24311 ft | 342 kts | 238° |
| 2026-05-06 08:12 | 59.08227 | 6.77856 | 23959 ft | 341 kts | 238° |
| 2026-05-06 08:12 | 59.06863 | 6.74097 | 23635 ft | 340 kts | 237° |
| 2026-05-06 08:12 | 59.05503 | 6.70358 | 23235 ft | 338 kts | 238° |
| 2026-05-06 08:13 | 59.04152 | 6.66634 | 22808 ft | 336 kts | 238° |
| 2026-05-06 08:13 | 59.03261 | 6.64183 | 22516 ft | 335 kts | 238° |
| 2026-05-06 08:13 | 59.01917 | 6.60499 | 22084 ft | 334 kts | 237° |
| 2026-05-06 08:13 | 59.00578 | 6.56832 | 21685 ft | 332 kts | 237° |
| 2026-05-06 08:14 | 58.99243 | 6.53185 | 21272 ft | 331 kts | 237° |
| 2026-05-06 08:14 | 58.97914 | 6.49555 | 20884 ft | 330 kts | 237° |
| 2026-05-06 08:14 | 58.96584 | 6.45934 | 20491 ft | 328 kts | 237° |
| 2026-05-06 08:14 | 58.95266 | 6.42339 | 20111 ft | 327 kts | 237° |
| 2026-05-06 08:15 | 58.93944 | 6.38746 | 19693 ft | 326 kts | 237° |
| 2026-05-06 08:15 | 58.92627 | 6.35181 | 19223 ft | 325 kts | 237° |
| 2026-05-06 08:15 | 58.91319 | 6.31633 | 18777 ft | 323 kts | 237° |
| 2026-05-06 08:15 | 58.90019 | 6.28110 | 18320 ft | 321 kts | 237° |
| 2026-05-06 08:16 | 58.88715 | 6.24602 | 17799 ft | 320 kts | 237° |
| 2026-05-06 08:16 | 58.87441 | 6.21143 | 17277 ft | 321 kts | 237° |
| 2026-05-06 08:16 | 58.86125 | 6.17591 | 16790 ft | 320 kts | 237° |
| 2026-05-06 08:16 | 58.84824 | 6.14109 | 16305 ft | 319 kts | 237° |
| 2026-05-06 08:17 | 58.83548 | 6.10686 | 15826 ft | 317 kts | 237° |
| 2026-05-06 08:17 | 58.82261 | 6.07233 | 15361 ft | 315 kts | 237° |
| 2026-05-06 08:17 | 58.80989 | 6.03805 | 14919 ft | 314 kts | 237° |
| 2026-05-06 08:17 | 58.79703 | 6.00399 | 14434 ft | 314 kts | 237° |
| 2026-05-06 08:18 | 58.78423 | 5.96984 | 13812 ft | 314 kts | 237° |
| 2026-05-06 08:18 | 58.77167 | 5.93616 | 13018 ft | 304 kts | 237° |
| 2026-05-06 08:18 | 58.75909 | 5.90260 | 12228 ft | 313 kts | 237° |
| 2026-05-06 08:18 | 58.74620 | 5.86840 | 11251 ft | 312 kts | 237° |
| 2026-05-06 08:19 | 58.73376 | 5.83546 | 10318 ft | 297 kts | 237° |
| 2026-05-06 08:19 | 58.72007 | 5.80672 | 9361 ft | 289 kts | 223° |
| 2026-05-06 08:19 | 58.70437 | 5.78342 | 8413 ft | 282 kts | 219° |
| 2026-05-06 08:19 | 58.68866 | 5.76160 | 7504 ft | 275 kts | 218° |
| 2026-05-06 08:20 | 58.67311 | 5.74039 | 6662 ft | 273 kts | 217° |
| 2026-05-06 08:20 | 58.65915 | 5.71643 | 5793 ft | 267 kts | 238° |
| 2026-05-06 08:20 | 58.65282 | 5.68400 | 4950 ft | 258 kts | 269° |
| 2026-05-06 08:20 | 58.65588 | 5.65091 | 4160 ft | 250 kts | 298° |
| 2026-05-06 08:21 | 58.66697 | 5.62652 | 3936 ft | 244 kts | 328° |
| 2026-05-06 08:21 | 58.68280 | 5.61546 | 3673 ft | 240 kts | 354° |
| 2026-05-06 08:21 | 58.69845 | 5.61947 | 3380 ft | 219 kts | 20° |
| 2026-05-06 08:21 | 58.71152 | 5.63213 | 3099 ft | 202 kts | 25° |
| 2026-05-06 08:22 | 58.72432 | 5.64048 | 2870 ft | 190 kts | 6° |
| 2026-05-06 08:22 | 58.73714 | 5.64119 | 2724 ft | 178 kts | 358° |
| 2026-05-06 08:22 | 58.74899 | 5.64143 | 2518 ft | 164 kts | 0° |
| 2026-05-06 08:22 | 58.75989 | 5.64148 | 2281 ft | 148 kts | 358° |
| 2026-05-06 08:23 | 58.76940 | 5.64102 | 2148 ft | 126 kts | 358° |
| 2026-05-06 08:23 | 58.77804 | 5.64083 | 1960 ft | 121 kts | 359° |
| 2026-05-06 08:23 | 58.78633 | 5.64063 | 1767 ft | 119 kts | 358° |
| 2026-05-06 08:23 | 58.79468 | 5.64030 | 1609 ft | 120 kts | 358° |
| 2026-05-06 08:24 | 58.80294 | 5.64006 | 1454 ft | 119 kts | 357° |
| 2026-05-06 08:24 | 58.81125 | 5.63988 | 1270 ft | 119 kts | 358° |
| 2026-05-06 08:24 | 58.81942 | 5.63976 | 1113 ft | 117 kts | 358° |
| 2026-05-06 08:24 | 58.82755 | 5.63927 | 939 ft | 120 kts | 359° |
| 2026-05-06 08:25 | 58.83604 | 5.63901 | 826 ft | 127 kts | 359° |
| 2026-05-06 08:25 | 58.84472 | 5.63899 | 672 ft | 127 kts | 359° |
| 2026-05-06 08:25 | 58.85354 | 5.63864 | 493 ft | 128 kts | 358° |
| 2026-05-06 08:25 | 58.86262 | 5.63830 | 245 ft | 128 kts | 359° |
| 2026-05-06 08:26 | 58.87140 | 5.63796 | 63 ft | 128 kts | 359° |
| 2026-05-06 08:26 | 58.87946 | 5.63769 | 31 ft | 99 kts | 359° |
| 2026-05-06 08:26 | 58.88476 | 5.63759 | 29 ft | 59 kts | 359° |
| 2026-05-06 08:26 | 58.88684 | 5.63728 | 27 ft | 19 kts | 326° |
| 2026-05-06 08:27 | 58.88705 | 5.63507 | 30 ft | 13 kts | 257° |
| 2026-05-06 08:27 | 58.88638 | 5.63420 | 30 ft | 13 kts | 183° |
| 2026-05-06 08:27 | 58.88539 | 5.63422 | 30 ft | 15 kts | 179° |
| 2026-05-06 08:27 | 58.88427 | 5.63427 | 30 ft | 17 kts | 179° |
| 2026-05-06 08:28 | 58.88307 | 5.63419 | 30 ft | 17 kts | 198° |
| 2026-05-06 08:28 | 58.88256 | 5.63225 | 26 ft | 15 kts | 255° |
| 2026-05-06 08:28 | 58.88242 | 5.63122 | 25 ft | 2 kts | 255° |
| 2026-05-06 08:28 | 58.88240 | 5.63107 | 26 ft | 1 kts | 255° |
| 2026-05-06 08:29 | 58.88239 | 5.63102 | 26 ft | 0 kts | 255° |